createdAt,value
2022-08-01T00:02:21.838Z,3.60
2022-08-01T00:05:22.736Z,3.53
2022-08-01T00:08:23.542Z,3.47
2022-08-01T00:11:24.710Z,3.67
2022-08-01T00:14:32.401Z,3.42
2022-08-01T00:17:34.082Z,3.97
2022-08-01T00:20:35.083Z,3.10
2022-08-01T00:23:36.341Z,3.97
2022-08-01T00:26:37.616Z,3.28
2022-08-01T00:30:09.523Z,3.10
2022-08-01T00:33:00.028Z,2.90
2022-08-01T00:36:01.326Z,2.70
2022-08-01T00:39:02.734Z,2.55
2022-08-01T00:42:14.137Z,2.85
2022-08-01T00:45:15.170Z,2.55
2022-08-01T00:48:16.140Z,2.75
2022-08-01T00:51:18.591Z,2.35
2022-08-01T00:54:20.262Z,3.25
2022-08-01T00:58:02.445Z,4.20
2022-08-01T01:00:53.511Z,3.50
2022-08-01T01:03:59.013Z,2.85
2022-08-01T01:07:36.793Z,3.08
2022-08-01T01:11:04.886Z,3.20
2022-08-01T01:14:24.441Z,3.58
2022-08-01T01:17:54.276Z,3.55
2022-08-01T01:21:19.361Z,3.90
2022-08-01T01:24:39.606Z,4.03
2022-08-01T01:27:51.092Z,4.20
2022-08-01T01:30:56.559Z,3.42
2022-08-01T01:34:02.021Z,4.85
2022-08-01T01:37:07.941Z,3.72
2022-08-01T01:40:12.062Z,3.85
2022-08-01T01:43:15.804Z,3.63
2022-08-01T01:46:23.818Z,3.03
2022-08-01T01:49:29.440Z,3.03
2022-08-01T01:52:33.350Z,3.45
2022-08-01T01:55:49.827Z,3.70
2022-08-01T01:59:03.134Z,3.03
2022-08-01T02:02:07.602Z,3.65
2022-08-01T02:05:12.515Z,3.83
2022-08-01T02:08:17.675Z,2.97
2022-08-01T02:11:20.850Z,2.97
2022-08-01T02:14:24.683Z,2.80
2022-08-01T02:17:27.790Z,3.10
2022-08-01T02:20:31.826Z,3.35
2022-08-01T02:23:40.208Z,2.83
2022-08-01T02:26:48.683Z,3.55
2022-08-01T02:30:05.993Z,3.20
2022-08-01T02:33:20.436Z,3.30
2022-08-01T02:36:30.522Z,3.13
2022-08-01T02:39:37.270Z,3.10
2022-08-01T02:42:43.822Z,3.03
2022-08-01T02:45:52.711Z,3.13
2022-08-01T02:48:59.503Z,3.22
2022-08-01T02:52:08.410Z,3.35
2022-08-01T02:55:11.934Z,3.80
2022-08-01T02:58:17.536Z,3.63
2022-08-01T03:01:22.183Z,3.85
2022-08-01T03:04:25.488Z,4.32
2022-08-01T03:07:34.288Z,3.75
2022-08-01T03:10:40.156Z,3.90
2022-08-01T03:13:46.889Z,3.92
2022-08-01T03:16:50.615Z,3.72
2022-08-01T03:19:54.448Z,4.32
2022-08-01T03:22:59.438Z,3.95
2022-08-01T03:26:03.256Z,3.88
2022-08-01T03:29:10.954Z,4.70
2022-08-01T03:32:15.030Z,4.50
2022-08-01T03:35:16.819Z,5.43
2022-08-01T03:38:24.250Z,4.65
2022-08-01T03:41:30.508Z,4.38
2022-08-01T03:44:40.257Z,4.55
2022-08-01T03:47:47.706Z,4.10
2022-08-01T03:50:53.492Z,4.13
2022-08-01T03:53:57.146Z,4.60
2022-08-01T03:56:59.773Z,4.45
2022-08-01T04:00:02.008Z,4.47
2022-08-01T04:03:16.427Z,3.97
2022-08-01T04:06:18.379Z,4.22
2022-08-01T04:09:19.804Z,4.00
2022-08-01T04:12:21.515Z,3.97
2022-08-01T04:15:22.549Z,3.90
2022-08-01T04:18:23.756Z,4.10
2022-08-01T04:21:31.791Z,4.03
2022-08-01T04:24:36.880Z,4.25
2022-08-01T04:27:49.991Z,4.60
2022-08-01T04:31:01.636Z,3.88
2022-08-01T04:34:06.991Z,3.60
2022-08-01T04:37:13.147Z,4.00
2022-08-01T04:40:17.202Z,4.30
2022-08-01T04:43:20.032Z,4.10
2022-08-01T04:46:21.275Z,3.80
2022-08-01T04:49:25.651Z,4.45
2022-08-01T04:52:35.922Z,4.20
2022-08-01T04:55:37.202Z,4.10
2022-08-01T04:58:38.356Z,4.53
2022-08-01T05:01:39.246Z,5.00
2022-08-01T05:04:42.504Z,4.82
2022-08-01T05:07:45.049Z,5.00
2022-08-01T05:10:46.831Z,5.10
2022-08-01T05:13:47.696Z,5.18
2022-08-01T05:16:49.267Z,4.85
2022-08-01T05:19:50.687Z,4.70
2022-08-01T05:22:51.859Z,4.57
2022-08-01T05:25:56.605Z,5.00
2022-08-01T05:28:58.629Z,5.20
2022-08-01T05:32:00.355Z,5.10
2022-08-01T05:35:01.836Z,4.57
2022-08-01T05:38:02.940Z,4.20
2022-08-01T05:41:03.818Z,5.00
2022-08-01T05:44:05.952Z,4.30
2022-08-01T05:47:07.312Z,4.07
2022-08-01T05:50:08.904Z,3.80
2022-08-01T05:53:10.161Z,4.45
2022-08-01T05:56:11.622Z,4.38
2022-08-01T05:59:12.303Z,4.55
2022-08-01T06:02:13.744Z,4.35
2022-08-01T06:05:15.037Z,4.35
2022-08-01T06:08:16.234Z,3.97
2022-08-01T06:11:17.166Z,3.75
2022-08-01T06:14:17.944Z,4.20
2022-08-01T06:17:19.127Z,4.45
2022-08-01T06:20:20.414Z,3.90
2022-08-01T06:23:31.722Z,4.20
2022-08-01T06:26:33.984Z,3.63
2022-08-01T06:29:36.064Z,4.07
2022-08-01T06:32:37.005Z,4.15
2022-08-01T06:35:37.785Z,4.30
2022-08-01T06:38:39.108Z,4.30
2022-08-01T06:41:42.581Z,4.00
2022-08-01T06:44:43.857Z,3.60
2022-08-01T06:47:50.882Z,3.42
2022-08-01T06:51:09.144Z,3.92
2022-08-01T06:54:10.271Z,3.70
2022-08-01T06:57:11.061Z,3.90
2022-08-01T07:00:14.142Z,3.97
2022-08-01T07:03:15.028Z,3.80
2022-08-01T07:06:16.351Z,3.85
2022-08-01T07:09:17.725Z,4.63
2022-08-01T07:12:19.066Z,3.92
2022-08-01T07:15:23.141Z,3.85
2022-08-01T07:18:26.296Z,3.55
2022-08-01T07:21:40.135Z,3.72
2022-08-01T07:24:45.878Z,3.80
2022-08-01T07:27:47.277Z,3.97
2022-08-01T07:30:48.449Z,3.55
2022-08-01T07:33:50.287Z,3.95
2022-08-01T07:36:53.188Z,3.80
2022-08-01T07:39:54.287Z,3.95
2022-08-01T07:42:55.115Z,4.10
2022-08-01T07:45:56.312Z,4.20
2022-08-01T07:48:57.853Z,4.20
2022-08-01T07:52:03.729Z,4.05
2022-08-01T07:55:06.636Z,3.72
2022-08-01T07:58:07.668Z,3.83
2022-08-01T08:01:08.867Z,4.15
2022-08-01T08:04:09.745Z,3.95
2022-08-01T08:07:10.978Z,3.72
2022-08-01T08:10:11.769Z,3.97
2022-08-01T08:13:13.028Z,3.75
2022-08-01T08:16:14.836Z,3.95
2022-08-01T08:19:15.603Z,3.78
2022-08-01T08:22:16.700Z,3.47
2022-08-01T08:25:20.164Z,3.03
2022-08-01T08:28:25.244Z,3.30
2022-08-01T08:31:51.690Z,2.72
2022-08-01T08:34:50.024Z,2.88
2022-08-01T08:37:51.008Z,3.20
2022-08-01T08:40:58.019Z,3.55
2022-08-01T08:44:00.299Z,3.28
2022-08-01T08:47:06.414Z,3.50
2022-08-01T08:50:11.157Z,3.03
2022-08-01T08:53:19.000Z,3.00
2022-08-01T08:56:21.734Z,2.55
2022-08-01T08:59:25.485Z,3.00
2022-08-01T09:02:26.481Z,3.22
2022-08-01T09:05:38.820Z,2.90
2022-08-01T09:08:41.232Z,3.65
2022-08-01T09:11:42.503Z,3.00
2022-08-01T09:14:48.875Z,3.40
2022-08-01T09:17:50.299Z,2.72
2022-08-01T09:20:51.301Z,3.83
2022-08-01T09:23:55.497Z,4.00
2022-08-01T09:26:57.390Z,3.80
2022-08-01T09:30:13.366Z,3.67
2022-08-01T09:33:21.722Z,3.80
2022-08-01T09:36:27.010Z,3.42
2022-08-01T09:39:41.400Z,3.88
2022-08-01T09:42:42.542Z,3.72
2022-08-01T09:45:45.710Z,3.10
2022-08-01T09:49:07.333Z,3.47
2022-08-01T09:52:26.128Z,3.80
2022-08-01T09:55:30.398Z,3.30
2022-08-01T09:59:01.653Z,3.28
2022-08-01T10:02:03.852Z,3.40
2022-08-01T10:05:08.948Z,3.40
2022-08-01T10:08:11.568Z,3.10
2022-08-01T10:11:13.981Z,3.70
2022-08-01T10:14:20.943Z,3.50
2022-08-01T10:17:50.706Z,3.47
2022-08-01T10:20:48.869Z,3.03
2022-08-01T10:23:50.471Z,3.03
2022-08-01T10:27:09.041Z,3.08
2022-08-01T10:30:19.928Z,3.50
2022-08-01T10:33:52.656Z,3.10
2022-08-01T10:36:47.532Z,3.33
2022-08-01T10:40:13.972Z,3.10
2022-08-01T10:43:21.868Z,3.15
2022-08-01T10:46:24.245Z,3.20
2022-08-01T10:49:32.921Z,2.90
2022-08-01T10:52:39.127Z,3.35
2022-08-01T10:55:51.344Z,2.88
2022-08-01T10:59:06.191Z,3.45
2022-08-01T11:02:08.142Z,3.03
2022-08-01T11:05:21.260Z,3.17
2022-08-01T11:08:27.097Z,3.28
2022-08-01T11:11:28.977Z,3.40
2022-08-01T11:15:02.890Z,3.05
2022-08-01T11:18:31.772Z,3.42
2022-08-01T11:21:57.852Z,3.00
2022-08-01T11:25:01.163Z,3.00
2022-08-01T11:28:31.976Z,3.10
2022-08-01T11:31:37.660Z,3.00
2022-08-01T11:34:56.815Z,3.10
2022-08-01T11:37:57.755Z,2.80
2022-08-01T11:41:17.688Z,3.22
2022-08-01T11:44:26.946Z,2.63
2022-08-01T11:47:49.941Z,2.72
2022-08-01T11:50:57.254Z,4.10
2022-08-01T11:54:00.041Z,3.50
2022-08-01T11:57:10.373Z,3.50
2022-08-01T12:00:17.536Z,2.88
2022-08-01T12:03:34.432Z,2.78
2022-08-01T12:06:35.764Z,2.70
2022-08-01T12:09:36.783Z,2.58
2022-08-01T12:12:43.525Z,3.00
2022-08-01T12:15:46.360Z,3.00
2022-08-01T12:18:48.484Z,2.90
2022-08-01T12:22:10.804Z,3.10
2022-08-01T12:25:18.153Z,2.60
2022-08-01T12:28:19.764Z,2.72
2022-08-01T12:31:33.900Z,2.90
2022-08-01T12:34:35.351Z,2.72
2022-08-01T12:37:42.164Z,2.90
2022-08-01T12:40:52.404Z,2.70
2022-08-01T12:43:54.420Z,2.88
2022-08-01T12:46:56.164Z,3.13
2022-08-01T12:49:57.512Z,2.70
2022-08-01T12:52:59.937Z,2.35
2022-08-01T12:56:01.327Z,2.47
2022-08-01T12:59:03.440Z,2.70
2022-08-01T13:02:10.304Z,3.25
2022-08-01T13:08:23.747Z,2.65
2022-08-01T13:11:28.486Z,2.90
2022-08-01T13:14:30.670Z,2.47
2022-08-01T13:17:38.593Z,2.50
2022-08-01T13:20:39.674Z,2.42
2022-08-01T13:24:03.389Z,2.90
2022-08-01T13:27:05.827Z,2.55
2022-08-01T13:30:19.043Z,2.70
2022-08-01T13:33:20.708Z,2.60
2022-08-01T13:36:28.080Z,2.95
2022-08-01T13:39:45.211Z,2.45
2022-08-01T13:42:45.960Z,2.53
2022-08-01T13:45:46.881Z,2.50
2022-08-01T13:48:48.211Z,2.60
2022-08-01T13:51:51.777Z,2.20
2022-08-01T13:54:52.617Z,2.28
2022-08-01T13:57:54.279Z,1.73
2022-08-01T14:00:56.695Z,1.65
2022-08-01T14:03:58.027Z,3.30
2022-08-01T14:07:01.078Z,2.55
2022-08-01T14:10:18.149Z,2.55
2022-08-01T14:13:20.996Z,2.63
2022-08-01T14:16:25.276Z,2.85
2022-08-01T14:19:38.492Z,2.00
2022-08-01T14:22:41.839Z,1.50
2022-08-01T14:25:59.221Z,1.30
2022-08-01T14:29:04.275Z,1.35
2022-08-01T14:32:05.647Z,2.20
2022-08-01T14:35:07.808Z,2.22
2022-08-01T14:38:09.506Z,1.65
2022-08-01T14:41:10.946Z,1.75
2022-08-01T14:44:11.717Z,2.00
2022-08-01T14:47:15.889Z,2.33
2022-08-01T14:50:22.814Z,2.30
2022-08-01T14:53:24.036Z,2.13
2022-08-01T14:56:25.188Z,2.60
2022-08-01T14:59:26.670Z,2.15
2022-08-01T15:02:27.770Z,1.70
2022-08-01T15:05:29.999Z,2.53
2022-08-01T15:08:31.282Z,2.08
2022-08-01T15:11:34.198Z,2.60
2022-08-01T15:14:50.604Z,2.13
2022-08-01T15:17:53.595Z,2.13
2022-08-01T15:20:55.116Z,2.40
2022-08-01T15:23:56.214Z,1.90
2022-08-01T15:26:57.443Z,2.00
2022-08-01T15:29:58.737Z,1.48
2022-08-01T15:33:00.211Z,1.52
2022-08-01T15:36:01.408Z,1.73
2022-08-01T15:39:03.942Z,1.20
2022-08-01T15:42:20.153Z,1.00
2022-08-01T15:48:48.766Z,1.30
2022-08-01T15:51:51.508Z,1.52
2022-08-01T15:54:52.644Z,1.25
2022-08-01T15:57:53.456Z,1.00
2022-08-01T16:00:54.311Z,0.80
2022-08-01T16:03:56.506Z,0.90
2022-08-01T16:06:57.588Z,0.70
2022-08-01T16:09:58.902Z,0.80
2022-08-01T16:13:05.872Z,0.70
2022-08-01T16:16:09.114Z,0.60
2022-08-01T16:19:10.045Z,0.70
2022-08-01T16:22:20.609Z,0.63
2022-08-01T16:25:21.636Z,0.73
2022-08-01T16:28:22.671Z,0.80
2022-08-01T16:31:50.081Z,0.70
2022-08-01T16:34:46.901Z,0.80
2022-08-01T16:37:48.772Z,0.93
2022-08-01T16:40:50.983Z,0.80
2022-08-01T16:43:54.012Z,1.10
2022-08-01T16:46:55.714Z,0.90
2022-08-01T16:49:56.531Z,1.00
2022-08-01T16:52:57.920Z,1.00
2022-08-01T16:55:58.946Z,0.80
2022-08-01T16:59:00.295Z,1.80
2022-08-01T17:02:02.640Z,2.25
2022-08-01T17:05:07.094Z,2.40
2022-08-01T17:08:11.908Z,3.10
2022-08-01T17:11:13.423Z,2.78
2022-08-01T17:14:15.319Z,2.80
2022-08-01T17:17:16.414Z,2.60
2022-08-01T17:20:17.970Z,2.45
2022-08-01T17:23:19.400Z,2.55
2022-08-01T17:26:20.857Z,2.65
2022-08-01T17:29:22.003Z,2.40
2022-08-01T17:32:23.245Z,3.05
2022-08-01T17:35:24.089Z,2.75
2022-08-01T17:38:25.210Z,2.60
2022-08-01T17:41:26.765Z,2.40
2022-08-01T17:44:27.790Z,2.65
2022-08-01T17:47:48.451Z,2.47
2022-08-01T17:50:50.082Z,2.50
2022-08-01T17:53:57.534Z,2.60
2022-08-01T17:56:58.992Z,2.95
2022-08-01T17:59:59.879Z,2.83
2022-08-01T18:03:01.218Z,2.67
2022-08-01T18:06:03.294Z,2.67
2022-08-01T18:09:04.609Z,2.70
2022-08-01T18:12:10.417Z,3.05
2022-08-01T18:15:15.094Z,2.85
2022-08-01T18:18:19.698Z,2.50
2022-08-01T18:21:37.605Z,3.10
2022-08-01T18:24:42.119Z,2.60
2022-08-01T18:28:16.574Z,2.80
2022-08-01T18:31:06.233Z,2.72
2022-08-01T18:34:07.325Z,3.10
2022-08-01T18:37:09.336Z,2.70
2022-08-01T18:40:13.485Z,3.13
2022-08-01T18:43:17.419Z,2.97
2022-08-01T18:46:18.267Z,4.25
2022-08-01T18:49:20.752Z,3.15
2022-08-01T18:52:22.264Z,6.28
2022-08-01T18:55:29.750Z,6.28
2022-08-01T18:58:30.560Z,4.90
2022-08-01T19:01:31.802Z,3.33
2022-08-01T19:04:33.014Z,2.67
2022-08-01T19:08:04.804Z,2.90
2022-08-01T19:10:54.888Z,2.80
2022-08-01T19:13:56.168Z,3.53
2022-08-01T19:16:57.315Z,3.45
2022-08-01T19:19:58.881Z,3.47
2022-08-01T19:22:59.926Z,3.60
2022-08-01T19:26:04.582Z,3.58
2022-08-01T19:29:35.570Z,4.28
2022-08-01T19:32:39.713Z,4.00
2022-08-01T19:35:40.726Z,4.55
2022-08-01T19:38:42.700Z,4.97
2022-08-01T19:41:48.809Z,5.40
2022-08-01T19:44:51.088Z,4.60
2022-08-01T19:47:56.505Z,4.18
2022-08-01T19:51:02.356Z,4.40
2022-08-01T19:54:10.627Z,3.83
2022-08-01T19:57:15.991Z,3.42
2022-08-01T20:00:27.711Z,3.38
2022-08-01T20:03:32.949Z,3.70
2022-08-01T20:06:35.473Z,4.15
2022-08-01T20:09:40.179Z,4.25
2022-08-01T20:12:41.754Z,3.63
2022-08-01T20:15:44.969Z,3.75
2022-08-01T20:18:45.884Z,4.10
2022-08-01T20:22:03.739Z,4.30
2022-08-01T20:25:06.418Z,4.00
2022-08-01T20:28:11.056Z,3.92
2022-08-01T20:31:13.616Z,3.58
2022-08-01T20:34:22.631Z,3.60
2022-08-01T20:38:04.156Z,3.25
2022-08-01T20:40:49.978Z,3.28
2022-08-01T20:43:57.338Z,3.40
2022-08-01T20:47:03.081Z,3.35
2022-08-01T20:50:27.086Z,2.72
2022-08-01T20:53:49.371Z,3.05
2022-08-01T20:57:07.768Z,3.00
2022-08-01T21:00:10.414Z,2.90
2022-08-01T21:03:22.084Z,3.22
2022-08-01T21:06:36.089Z,3.05
2022-08-01T21:09:39.730Z,2.85
2022-08-01T21:12:54.484Z,3.40
2022-08-01T21:16:24.021Z,3.55
2022-08-01T21:19:31.795Z,3.38
2022-08-01T21:22:41.625Z,3.95
2022-08-01T21:25:44.065Z,4.63
2022-08-01T21:28:54.534Z,3.88
2022-08-01T21:32:23.602Z,4.20
2022-08-01T21:35:27.892Z,5.30
2022-08-01T21:38:30.729Z,4.63
2022-08-01T21:42:01.442Z,5.43
2022-08-01T21:44:58.997Z,5.85
2022-08-01T21:48:00.875Z,6.53
2022-08-01T21:51:29.874Z,6.78
2022-08-01T21:55:10.906Z,6.00
2022-08-01T21:58:35.323Z,5.80
2022-08-01T22:02:04.388Z,4.82
2022-08-01T22:05:12.353Z,5.65
2022-08-01T22:08:17.016Z,5.28
2022-08-01T22:11:30.911Z,5.72
2022-08-01T22:14:38.985Z,4.70
2022-08-01T22:17:41.523Z,4.85
2022-08-01T22:20:43.629Z,4.88
2022-08-01T22:23:44.639Z,4.25
2022-08-01T22:26:48.786Z,4.35
2022-08-01T22:29:58.912Z,4.38
2022-08-01T22:33:07.342Z,3.90
2022-08-01T22:36:19.731Z,4.53
2022-08-01T22:39:20.991Z,3.78
2022-08-01T22:42:38.072Z,4.07
2022-08-01T22:46:04.304Z,4.18
2022-08-01T22:49:29.792Z,4.82
2022-08-01T22:52:37.170Z,4.68
2022-08-01T22:55:59.149Z,4.60
2022-08-01T22:59:08.119Z,4.45
2022-08-01T23:02:15.492Z,4.97
2022-08-01T23:05:24.690Z,4.50
2022-08-01T23:08:27.748Z,5.05
2022-08-01T23:11:30.472Z,4.45
2022-08-01T23:14:35.913Z,4.72
2022-08-01T23:17:38.239Z,4.63
2022-08-01T23:20:39.753Z,4.60
2022-08-01T23:23:41.581Z,5.07
2022-08-01T23:26:43.682Z,5.22
2022-08-01T23:29:48.899Z,4.97
2022-08-01T23:32:49.896Z,5.70
2022-08-01T23:35:51.178Z,4.93
2022-08-01T23:38:52.066Z,5.63
2022-08-01T23:41:58.206Z,4.90
2022-08-01T23:45:00.314Z,4.93
2022-08-01T23:48:01.677Z,5.35
2022-08-01T23:51:04.669Z,5.07
2022-08-01T23:54:06.292Z,6.22
2022-08-01T23:57:08.014Z,4.95
